sensor_id;sensor_type;location;lat;lon;timestamp;P1;durP1;ratioP1;P2;durP2;ratioP2
10987;SDS011;5547;42.672;23.230;2023-12-28T00:03:12;32.80;;;21.20;;
10987;SDS011;5547;42.672;23.230;2023-12-28T00:07:11;32.67;;;20.92;;
10987;SDS011;5547;42.672;23.230;2023-12-28T00:11:10;24.70;;;16.77;;
10987;SDS011;5547;42.672;23.230;2023-12-28T00:15:09;26.85;;;18.15;;
10987;SDS011;5547;42.672;23.230;2023-12-28T00:19:08;28.70;;;19.58;;
10987;SDS011;5547;42.672;23.230;2023-12-28T00:23:07;32.70;;;20.30;;
10987;SDS011;5547;42.672;23.230;2023-12-28T00:27:06;31.08;;;19.73;;
10987;SDS011;5547;42.672;23.230;2023-12-28T00:31:05;28.07;;;18.63;;
10987;SDS011;5547;42.672;23.230;2023-12-28T00:35:05;26.70;;;17.73;;
10987;SDS011;5547;42.672;23.230;2023-12-28T00:39:04;27.95;;;19.17;;
10987;SDS011;5547;42.672;23.230;2023-12-28T00:43:06;28.30;;;18.80;;
10987;SDS011;5547;42.672;23.230;2023-12-28T00:47:07;28.98;;;19.48;;
10987;SDS011;5547;42.672;23.230;2023-12-28T00:51:06;26.77;;;18.45;;
10987;SDS011;5547;42.672;23.230;2023-12-28T00:55:05;28.73;;;18.85;;
10987;SDS011;5547;42.672;23.230;2023-12-28T00:59:04;29.70;;;18.80;;
10987;SDS011;5547;42.672;23.230;2023-12-28T01:03:04;25.67;;;17.70;;
10987;SDS011;5547;42.672;23.230;2023-12-28T01:07:03;26.95;;;18.83;;
10987;SDS011;5547;42.672;23.230;2023-12-28T01:11:02;27.33;;;17.50;;
10987;SDS011;5547;42.672;23.230;2023-12-28T01:15:01;24.60;;;15.60;;
10987;SDS011;5547;42.672;23.230;2023-12-28T01:19:00;22.10;;;14.07;;
10987;SDS011;5547;42.672;23.230;2023-12-28T01:22:59;24.85;;;15.02;;
10987;SDS011;5547;42.672;23.230;2023-12-28T01:26:58;21.58;;;13.65;;
10987;SDS011;5547;42.672;23.230;2023-12-28T01:30:57;21.25;;;13.13;;
10987;SDS011;5547;42.672;23.230;2023-12-28T01:34:56;22.57;;;13.53;;
10987;SDS011;5547;42.672;23.230;2023-12-28T01:38:54;20.48;;;12.00;;
10987;SDS011;5547;42.672;23.230;2023-12-28T01:42:53;12.32;;;7.70;;
10987;SDS011;5547;42.672;23.230;2023-12-28T01:46:52;11.15;;;6.72;;
10987;SDS011;5547;42.672;23.230;2023-12-28T01:50:52;10.37;;;6.00;;
10987;SDS011;5547;42.672;23.230;2023-12-28T01:54:51;9.35;;;5.82;;
10987;SDS011;5547;42.672;23.230;2023-12-28T01:58:51;9.55;;;5.40;;
10987;SDS011;5547;42.672;23.230;2023-12-28T02:02:51;7.88;;;5.43;;
10987;SDS011;5547;42.672;23.230;2023-12-28T02:06:50;8.23;;;5.70;;
10987;SDS011;5547;42.672;23.230;2023-12-28T02:10:49;7.72;;;4.88;;
10987;SDS011;5547;42.672;23.230;2023-12-28T02:14:48;8.30;;;5.17;;
10987;SDS011;5547;42.672;23.230;2023-12-28T02:18:51;10.07;;;5.93;;
10987;SDS011;5547;42.672;23.230;2023-12-28T02:22:54;7.93;;;5.80;;
10987;SDS011;5547;42.672;23.230;2023-12-28T02:26:53;8.30;;;5.30;;
10987;SDS011;5547;42.672;23.230;2023-12-28T02:30:52;8.68;;;5.72;;
10987;SDS011;5547;42.672;23.230;2023-12-28T02:34:59;8.70;;;5.93;;
10987;SDS011;5547;42.672;23.230;2023-12-28T02:39:09;9.85;;;6.20;;
10987;SDS011;5547;42.672;23.230;2023-12-28T02:43:09;10.15;;;6.95;;
10987;SDS011;5547;42.672;23.230;2023-12-28T02:47:08;11.07;;;7.13;;
10987;SDS011;5547;42.672;23.230;2023-12-28T02:51:07;12.05;;;7.55;;
10987;SDS011;5547;42.672;23.230;2023-12-28T02:55:06;13.10;;;7.97;;
10987;SDS011;5547;42.672;23.230;2023-12-28T02:59:06;13.33;;;8.50;;
10987;SDS011;5547;42.672;23.230;2023-12-28T03:03:05;17.23;;;11.23;;
10987;SDS011;5547;42.672;23.230;2023-12-28T03:07:07;340.20;;;39.57;;
10987;SDS011;5547;42.672;23.230;2023-12-28T03:11:07;20.92;;;12.02;;
10987;SDS011;5547;42.672;23.230;2023-12-28T03:15:06;205.73;;;25.60;;
10987;SDS011;5547;42.672;23.230;2023-12-28T03:19:05;21.67;;;13.10;;
10987;SDS011;5547;42.672;23.230;2023-12-28T03:23:05;29.83;;;19.00;;
10987;SDS011;5547;42.672;23.230;2023-12-28T03:27:04;40.70;;;22.73;;
10987;SDS011;5547;42.672;23.230;2023-12-28T03:31:03;31.50;;;18.02;;
10987;SDS011;5547;42.672;23.230;2023-12-28T03:35:02;20.85;;;14.93;;
10987;SDS011;5547;42.672;23.230;2023-12-28T03:39:01;23.08;;;14.02;;
10987;SDS011;5547;42.672;23.230;2023-12-28T03:43:01;30.00;;;18.30;;
10987;SDS011;5547;42.672;23.230;2023-12-28T03:47:00;26.43;;;17.30;;
10987;SDS011;5547;42.672;23.230;2023-12-28T03:50:59;24.15;;;16.42;;
10987;SDS011;5547;42.672;23.230;2023-12-28T03:54:58;120.15;;;25.92;;
10987;SDS011;5547;42.672;23.230;2023-12-28T03:59:00;26.40;;;17.90;;
10987;SDS011;5547;42.672;23.230;2023-12-28T04:02:59;27.10;;;19.52;;
10987;SDS011;5547;42.672;23.230;2023-12-28T04:06:58;23.90;;;17.33;;
10987;SDS011;5547;42.672;23.230;2023-12-28T04:10:57;42.55;;;20.15;;
10987;SDS011;5547;42.672;23.230;2023-12-28T04:14:56;32.85;;;20.10;;
10987;SDS011;5547;42.672;23.230;2023-12-28T04:18:55;32.00;;;20.92;;
10987;SDS011;5547;42.672;23.230;2023-12-28T04:22:53;35.97;;;21.77;;
10987;SDS011;5547;42.672;23.230;2023-12-28T04:26:52;33.55;;;20.17;;
10987;SDS011;5547;42.672;23.230;2023-12-28T04:30:51;32.17;;;20.15;;
10987;SDS011;5547;42.672;23.230;2023-12-28T04:34:50;32.65;;;20.52;;
10987;SDS011;5547;42.672;23.230;2023-12-28T04:38:49;83.60;;;28.17;;
10987;SDS011;5547;42.672;23.230;2023-12-28T04:42:48;34.75;;;21.35;;
10987;SDS011;5547;42.672;23.230;2023-12-28T04:46:47;36.40;;;21.80;;
10987;SDS011;5547;42.672;23.230;2023-12-28T04:50:46;43.15;;;25.23;;
10987;SDS011;5547;42.672;23.230;2023-12-28T04:54:45;60.63;;;28.77;;
10987;SDS011;5547;42.672;23.230;2023-12-28T04:58:44;44.53;;;26.52;;
10987;SDS011;5547;42.672;23.230;2023-12-28T05:02:43;51.88;;;26.52;;
10987;SDS011;5547;42.672;23.230;2023-12-28T05:06:42;43.03;;;25.20;;
10987;SDS011;5547;42.672;23.230;2023-12-28T05:10:41;39.95;;;22.92;;
10987;SDS011;5547;42.672;23.230;2023-12-28T05:14:40;41.97;;;22.02;;
10987;SDS011;5547;42.672;23.230;2023-12-28T05:18:39;34.60;;;21.15;;
10987;SDS011;5547;42.672;23.230;2023-12-28T05:22:38;34.15;;;20.05;;
10987;SDS011;5547;42.672;23.230;2023-12-28T05:26:37;32.85;;;19.63;;
10987;SDS011;5547;42.672;23.230;2023-12-28T05:30:35;30.67;;;19.33;;
10987;SDS011;5547;42.672;23.230;2023-12-28T05:34:34;31.52;;;20.15;;
10987;SDS011;5547;42.672;23.230;2023-12-28T05:38:33;60.60;;;22.55;;
10987;SDS011;5547;42.672;23.230;2023-12-28T05:42:32;34.75;;;20.75;;
10987;SDS011;5547;42.672;23.230;2023-12-28T05:46:31;47.73;;;21.60;;
10987;SDS011;5547;42.672;23.230;2023-12-28T05:50:30;46.97;;;26.48;;
10987;SDS011;5547;42.672;23.230;2023-12-28T05:54:29;83.53;;;31.25;;
10987;SDS011;5547;42.672;23.230;2023-12-28T05:58:28;46.17;;;28.88;;
10987;SDS011;5547;42.672;23.230;2023-12-28T06:02:26;44.63;;;28.33;;
10987;SDS011;5547;42.672;23.230;2023-12-28T06:06:28;38.78;;;24.42;;
10987;SDS011;5547;42.672;23.230;2023-12-28T06:10:27;33.00;;;21.13;;
10987;SDS011;5547;42.672;23.230;2023-12-28T06:14:26;35.30;;;20.02;;
10987;SDS011;5547;42.672;23.230;2023-12-28T06:18:25;30.35;;;18.67;;
10987;SDS011;5547;42.672;23.230;2023-12-28T06:22:24;42.37;;;25.60;;
10987;SDS011;5547;42.672;23.230;2023-12-28T06:26:23;42.00;;;24.92;;
10987;SDS011;5547;42.672;23.230;2023-12-28T06:30:23;39.08;;;23.27;;
10987;SDS011;5547;42.672;23.230;2023-12-28T06:34:22;46.38;;;26.33;;
10987;SDS011;5547;42.672;23.230;2023-12-28T06:38:21;39.35;;;25.40;;
10987;SDS011;5547;42.672;23.230;2023-12-28T06:42:20;45.28;;;29.25;;
10987;SDS011;5547;42.672;23.230;2023-12-28T06:46:19;37.30;;;25.52;;
10987;SDS011;5547;42.672;23.230;2023-12-28T06:50:18;34.33;;;24.75;;
10987;SDS011;5547;42.672;23.230;2023-12-28T06:54:18;33.35;;;23.35;;
10987;SDS011;5547;42.672;23.230;2023-12-28T06:58:17;38.35;;;25.88;;
10987;SDS011;5547;42.672;23.230;2023-12-28T07:02:16;36.70;;;25.65;;
10987;SDS011;5547;42.672;23.230;2023-12-28T07:06:15;38.15;;;25.42;;
10987;SDS011;5547;42.672;23.230;2023-12-28T07:10:14;36.72;;;23.90;;
10987;SDS011;5547;42.672;23.230;2023-12-28T07:14:13;38.03;;;24.20;;
10987;SDS011;5547;42.672;23.230;2023-12-28T07:18:14;34.30;;;22.38;;
10987;SDS011;5547;42.672;23.230;2023-12-28T07:22:13;32.28;;;21.77;;
10987;SDS011;5547;42.672;23.230;2023-12-28T07:26:13;32.53;;;22.60;;
10987;SDS011;5547;42.672;23.230;2023-12-28T07:30:12;37.70;;;25.30;;
10987;SDS011;5547;42.672;23.230;2023-12-28T07:34:11;36.35;;;26.05;;
10987;SDS011;5547;42.672;23.230;2023-12-28T07:38:11;36.30;;;24.98;;
10987;SDS011;5547;42.672;23.230;2023-12-28T07:42:10;34.85;;;24.10;;
10987;SDS011;5547;42.672;23.230;2023-12-28T07:46:09;35.88;;;25.83;;
10987;SDS011;5547;42.672;23.230;2023-12-28T07:50:08;35.88;;;26.13;;
10987;SDS011;5547;42.672;23.230;2023-12-28T07:54:07;40.73;;;28.77;;
10987;SDS011;5547;42.672;23.230;2023-12-28T07:58:06;43.10;;;29.23;;
10987;SDS011;5547;42.672;23.230;2023-12-28T08:02:06;41.67;;;29.60;;
10987;SDS011;5547;42.672;23.230;2023-12-28T08:06:05;42.90;;;28.88;;
10987;SDS011;5547;42.672;23.230;2023-12-28T08:10:04;43.43;;;30.87;;
10987;SDS011;5547;42.672;23.230;2023-12-28T08:14:05;39.00;;;26.53;;
10987;SDS011;5547;42.672;23.230;2023-12-28T08:18:04;39.75;;;26.80;;
10987;SDS011;5547;42.672;23.230;2023-12-28T08:22:03;36.15;;;25.77;;
10987;SDS011;5547;42.672;23.230;2023-12-28T08:26:02;35.97;;;25.13;;
10987;SDS011;5547;42.672;23.230;2023-12-28T08:30:01;36.53;;;26.27;;
10987;SDS011;5547;42.672;23.230;2023-12-28T08:34:00;38.20;;;25.85;;
10987;SDS011;5547;42.672;23.230;2023-12-28T08:37:59;42.63;;;29.60;;
10987;SDS011;5547;42.672;23.230;2023-12-28T08:41:58;36.75;;;25.55;;
10987;SDS011;5547;42.672;23.230;2023-12-28T08:45:56;34.17;;;24.20;;
10987;SDS011;5547;42.672;23.230;2023-12-28T08:49:55;30.60;;;21.47;;
10987;SDS011;5547;42.672;23.230;2023-12-28T08:53:54;32.50;;;22.08;;
10987;SDS011;5547;42.672;23.230;2023-12-28T08:57:55;31.13;;;21.55;;
10987;SDS011;5547;42.672;23.230;2023-12-28T09:01:54;31.67;;;23.27;;
10987;SDS011;5547;42.672;23.230;2023-12-28T09:05:53;31.33;;;22.15;;
10987;SDS011;5547;42.672;23.230;2023-12-28T09:09:52;33.33;;;23.00;;
10987;SDS011;5547;42.672;23.230;2023-12-28T09:13:51;33.40;;;23.25;;
10987;SDS011;5547;42.672;23.230;2023-12-28T09:17:52;30.50;;;22.67;;
10987;SDS011;5547;42.672;23.230;2023-12-28T09:21:51;24.10;;;16.63;;
10987;SDS011;5547;42.672;23.230;2023-12-28T09:25:53;32.75;;;23.25;;
10987;SDS011;5547;42.672;23.230;2023-12-28T09:29:53;30.42;;;20.65;;
10987;SDS011;5547;42.672;23.230;2023-12-28T09:33:52;26.60;;;20.50;;
10987;SDS011;5547;42.672;23.230;2023-12-28T09:37:50;27.25;;;20.50;;
10987;SDS011;5547;42.672;23.230;2023-12-28T09:42:37;29.00;;;20.40;;
10987;SDS011;5547;42.672;23.230;2023-12-28T09:46:19;30.23;;;20.83;;
10987;SDS011;5547;42.672;23.230;2023-12-28T09:50:18;26.87;;;19.50;;
10987;SDS011;5547;42.672;23.230;2023-12-28T09:54:17;30.90;;;21.05;;
10987;SDS011;5547;42.672;23.230;2023-12-28T09:58:17;28.55;;;20.90;;
10987;SDS011;5547;42.672;23.230;2023-12-28T10:02:17;28.90;;;20.77;;
10987;SDS011;5547;42.672;23.230;2023-12-28T10:06:17;27.48;;;19.88;;
10987;SDS011;5547;42.672;23.230;2023-12-28T10:10:16;27.20;;;21.00;;
10987;SDS011;5547;42.672;23.230;2023-12-28T10:14:19;27.30;;;20.17;;
10987;SDS011;5547;42.672;23.230;2023-12-28T10:18:18;26.40;;;18.50;;
10987;SDS011;5547;42.672;23.230;2023-12-28T10:22:21;27.00;;;18.83;;
10987;SDS011;5547;42.672;23.230;2023-12-28T10:26:21;27.20;;;19.67;;
10987;SDS011;5547;42.672;23.230;2023-12-28T10:30:20;27.13;;;19.25;;
10987;SDS011;5547;42.672;23.230;2023-12-28T10:34:21;30.27;;;21.88;;
10987;SDS011;5547;42.672;23.230;2023-12-28T10:38:20;35.03;;;25.30;;
10987;SDS011;5547;42.672;23.230;2023-12-28T10:42:22;38.05;;;26.80;;
10987;SDS011;5547;42.672;23.230;2023-12-28T10:46:26;31.63;;;23.67;;
10987;SDS011;5547;42.672;23.230;2023-12-28T10:50:28;32.47;;;24.15;;
10987;SDS011;5547;42.672;23.230;2023-12-28T10:54:34;30.75;;;21.80;;
10987;SDS011;5547;42.672;23.230;2023-12-28T10:58:58;28.98;;;21.38;;
10987;SDS011;5547;42.672;23.230;2023-12-28T11:03:08;29.90;;;22.17;;
10987;SDS011;5547;42.672;23.230;2023-12-28T11:07:17;33.90;;;23.30;;
10987;SDS011;5547;42.672;23.230;2023-12-28T11:11:19;31.07;;;22.90;;
10987;SDS011;5547;42.672;23.230;2023-12-28T11:15:18;34.45;;;25.67;;
10987;SDS011;5547;42.672;23.230;2023-12-28T11:19:20;36.73;;;24.53;;
10987;SDS011;5547;42.672;23.230;2023-12-28T11:23:19;32.77;;;23.20;;
10987;SDS011;5547;42.672;23.230;2023-12-28T11:27:19;36.00;;;25.07;;
10987;SDS011;5547;42.672;23.230;2023-12-28T11:31:23;34.47;;;25.83;;
10987;SDS011;5547;42.672;23.230;2023-12-28T11:35:31;37.13;;;25.37;;
10987;SDS011;5547;42.672;23.230;2023-12-28T11:39:36;41.47;;;28.13;;
10987;SDS011;5547;42.672;23.230;2023-12-28T11:43:51;41.28;;;30.48;;
10987;SDS011;5547;42.672;23.230;2023-12-28T11:48:00;44.13;;;31.88;;
10987;SDS011;5547;42.672;23.230;2023-12-28T11:52:09;44.20;;;32.20;;
10987;SDS011;5547;42.672;23.230;2023-12-28T11:56:08;41.95;;;30.80;;
10987;SDS011;5547;42.672;23.230;2023-12-28T12:00:07;43.07;;;30.20;;
10987;SDS011;5547;42.672;23.230;2023-12-28T12:04:06;40.53;;;28.47;;
10987;SDS011;5547;42.672;23.230;2023-12-28T12:08:09;42.03;;;29.88;;
10987;SDS011;5547;42.672;23.230;2023-12-28T12:12:10;39.00;;;28.10;;
10987;SDS011;5547;42.672;23.230;2023-12-28T12:16:09;42.13;;;27.60;;
10987;SDS011;5547;42.672;23.230;2023-12-28T12:20:09;39.70;;;29.70;;
10987;SDS011;5547;42.672;23.230;2023-12-28T12:24:08;30.80;;;21.67;;
10987;SDS011;5547;42.672;23.230;2023-12-28T12:28:10;23.30;;;16.67;;
10987;SDS011;5547;42.672;23.230;2023-12-28T12:32:09;24.93;;;18.43;;
10987;SDS011;5547;42.672;23.230;2023-12-28T12:36:10;30.10;;;20.77;;
10987;SDS011;5547;42.672;23.230;2023-12-28T12:40:09;24.63;;;17.70;;
10987;SDS011;5547;42.672;23.230;2023-12-28T12:44:10;22.88;;;16.60;;
10987;SDS011;5547;42.672;23.230;2023-12-28T12:48:09;25.58;;;17.90;;
10987;SDS011;5547;42.672;23.230;2023-12-28T12:52:08;26.90;;;18.15;;
10987;SDS011;5547;42.672;23.230;2023-12-28T12:56:08;25.85;;;18.67;;
10987;SDS011;5547;42.672;23.230;2023-12-28T13:00:08;26.77;;;19.40;;
10987;SDS011;5547;42.672;23.230;2023-12-28T13:04:11;29.77;;;20.37;;
10987;SDS011;5547;42.672;23.230;2023-12-28T13:08:11;30.80;;;20.95;;
10987;SDS011;5547;42.672;23.230;2023-12-28T13:12:11;29.23;;;20.42;;
10987;SDS011;5547;42.672;23.230;2023-12-28T13:16:10;30.23;;;21.37;;
10987;SDS011;5547;42.672;23.230;2023-12-28T13:20:09;29.50;;;21.67;;
10987;SDS011;5547;42.672;23.230;2023-12-28T13:24:09;30.38;;;22.42;;
10987;SDS011;5547;42.672;23.230;2023-12-28T13:28:08;33.40;;;22.90;;
10987;SDS011;5547;42.672;23.230;2023-12-28T13:32:07;34.10;;;22.80;;
10987;SDS011;5547;42.672;23.230;2023-12-28T13:36:06;31.75;;;21.88;;
10987;SDS011;5547;42.672;23.230;2023-12-28T13:40:05;34.85;;;23.95;;
10987;SDS011;5547;42.672;23.230;2023-12-28T13:44:05;33.55;;;22.73;;
10987;SDS011;5547;42.672;23.230;2023-12-28T13:48:04;34.20;;;25.50;;
10987;SDS011;5547;42.672;23.230;2023-12-28T13:52:04;39.00;;;25.83;;
10987;SDS011;5547;42.672;23.230;2023-12-28T13:56:06;37.47;;;25.20;;
10987;SDS011;5547;42.672;23.230;2023-12-28T14:00:05;37.28;;;24.67;;
10987;SDS011;5547;42.672;23.230;2023-12-28T14:04:04;35.03;;;23.85;;
10987;SDS011;5547;42.672;23.230;2023-12-28T14:08:03;35.97;;;24.45;;
10987;SDS011;5547;42.672;23.230;2023-12-28T14:12:03;37.65;;;24.08;;
10987;SDS011;5547;42.672;23.230;2023-12-28T14:16:02;37.43;;;24.37;;
10987;SDS011;5547;42.672;23.230;2023-12-28T14:20:01;31.48;;;22.25;;
10987;SDS011;5547;42.672;23.230;2023-12-28T14:24:00;36.53;;;23.98;;
10987;SDS011;5547;42.672;23.230;2023-12-28T14:27:59;32.67;;;22.13;;
10987;SDS011;5547;42.672;23.230;2023-12-28T14:31:59;32.72;;;21.83;;
10987;SDS011;5547;42.672;23.230;2023-12-28T14:35:58;33.30;;;21.85;;
10987;SDS011;5547;42.672;23.230;2023-12-28T14:39:57;35.25;;;23.75;;
10987;SDS011;5547;42.672;23.230;2023-12-28T14:43:57;36.78;;;24.52;;
10987;SDS011;5547;42.672;23.230;2023-12-28T14:47:56;34.00;;;23.35;;
10987;SDS011;5547;42.672;23.230;2023-12-28T14:51:55;32.47;;;21.75;;
10987;SDS011;5547;42.672;23.230;2023-12-28T14:55:54;30.08;;;20.50;;
10987;SDS011;5547;42.672;23.230;2023-12-28T14:59:54;33.33;;;21.67;;
10987;SDS011;5547;42.672;23.230;2023-12-28T15:03:54;32.58;;;21.23;;
10987;SDS011;5547;42.672;23.230;2023-12-28T15:07:53;31.48;;;21.10;;
10987;SDS011;5547;42.672;23.230;2023-12-28T15:11:52;20.83;;;15.57;;
10987;SDS011;5547;42.672;23.230;2023-12-28T15:15:51;23.10;;;16.05;;
10987;SDS011;5547;42.672;23.230;2023-12-28T15:19:50;21.00;;;15.40;;
10987;SDS011;5547;42.672;23.230;2023-12-28T15:23:49;25.00;;;15.97;;
10987;SDS011;5547;42.672;23.230;2023-12-28T15:27:48;25.05;;;16.48;;
10987;SDS011;5547;42.672;23.230;2023-12-28T15:31:50;26.05;;;17.60;;
10987;SDS011;5547;42.672;23.230;2023-12-28T15:35:49;22.17;;;16.77;;
10987;SDS011;5547;42.672;23.230;2023-12-28T15:39:48;27.83;;;18.98;;
10987;SDS011;5547;42.672;23.230;2023-12-28T15:43:47;28.83;;;20.60;;
10987;SDS011;5547;42.672;23.230;2023-12-28T15:47:46;28.35;;;20.65;;
10987;SDS011;5547;42.672;23.230;2023-12-28T15:51:45;33.93;;;23.43;;
10987;SDS011;5547;42.672;23.230;2023-12-28T15:55:44;42.03;;;28.67;;
10987;SDS011;5547;42.672;23.230;2023-12-28T15:59:43;40.58;;;26.23;;
10987;SDS011;5547;42.672;23.230;2023-12-28T16:03:43;46.10;;;31.08;;
10987;SDS011;5547;42.672;23.230;2023-12-28T16:07:42;51.67;;;34.05;;
10987;SDS011;5547;42.672;23.230;2023-12-28T16:11:41;49.92;;;31.90;;
10987;SDS011;5547;42.672;23.230;2023-12-28T16:15:40;46.60;;;33.00;;
10987;SDS011;5547;42.672;23.230;2023-12-28T16:19:39;48.33;;;33.47;;
10987;SDS011;5547;42.672;23.230;2023-12-28T16:23:39;50.23;;;32.20;;
10987;SDS011;5547;42.672;23.230;2023-12-28T16:27:38;51.05;;;34.30;;
10987;SDS011;5547;42.672;23.230;2023-12-28T16:31:37;82.00;;;50.30;;
10987;SDS011;5547;42.672;23.230;2023-12-28T16:35:35;70.05;;;46.22;;
10987;SDS011;5547;42.672;23.230;2023-12-28T16:39:34;67.67;;;38.47;;
10987;SDS011;5547;42.672;23.230;2023-12-28T16:43:34;51.30;;;35.33;;
10987;SDS011;5547;42.672;23.230;2023-12-28T16:47:33;54.80;;;36.60;;
10987;SDS011;5547;42.672;23.230;2023-12-28T16:51:32;48.75;;;33.38;;
10987;SDS011;5547;42.672;23.230;2023-12-28T16:55:31;56.38;;;39.95;;
10987;SDS011;5547;42.672;23.230;2023-12-28T16:59:30;53.75;;;39.13;;
10987;SDS011;5547;42.672;23.230;2023-12-28T17:03:29;68.57;;;45.13;;
10987;SDS011;5547;42.672;23.230;2023-12-28T17:07:28;61.27;;;41.33;;
10987;SDS011;5547;42.672;23.230;2023-12-28T17:11:27;68.75;;;44.80;;
10987;SDS011;5547;42.672;23.230;2023-12-28T17:15:38;62.03;;;42.00;;
10987;SDS011;5547;42.672;23.230;2023-12-28T17:19:37;54.63;;;38.53;;
10987;SDS011;5547;42.672;23.230;2023-12-28T17:23:37;59.03;;;38.97;;
10987;SDS011;5547;42.672;23.230;2023-12-28T17:27:47;94.07;;;45.00;;
10987;SDS011;5547;42.672;23.230;2023-12-28T17:31:51;67.00;;;43.33;;
10987;SDS011;5547;42.672;23.230;2023-12-28T17:35:57;58.65;;;37.92;;
10987;SDS011;5547;42.672;23.230;2023-12-28T17:39:56;54.85;;;35.47;;
10987;SDS011;5547;42.672;23.230;2023-12-28T17:43:55;54.90;;;35.38;;
10987;SDS011;5547;42.672;23.230;2023-12-28T17:48:00;58.60;;;36.55;;
10987;SDS011;5547;42.672;23.230;2023-12-28T17:52:02;63.58;;;38.72;;
10987;SDS011;5547;42.672;23.230;2023-12-28T17:56:02;42.92;;;28.60;;
10987;SDS011;5547;42.672;23.230;2023-12-28T18:00:01;36.50;;;24.73;;
10987;SDS011;5547;42.672;23.230;2023-12-28T18:04:00;35.92;;;24.05;;
10987;SDS011;5547;42.672;23.230;2023-12-28T18:07:59;38.70;;;24.75;;
10987;SDS011;5547;42.672;23.230;2023-12-28T18:11:58;34.77;;;23.97;;
10987;SDS011;5547;42.672;23.230;2023-12-28T18:15:57;35.90;;;25.55;;
10987;SDS011;5547;42.672;23.230;2023-12-28T18:19:57;40.90;;;25.77;;
10987;SDS011;5547;42.672;23.230;2023-12-28T18:23:56;61.15;;;43.47;;
10987;SDS011;5547;42.672;23.230;2023-12-28T18:27:55;66.85;;;44.80;;
10987;SDS011;5547;42.672;23.230;2023-12-28T18:31:54;71.93;;;39.00;;
10987;SDS011;5547;42.672;23.230;2023-12-28T18:35:53;53.00;;;32.95;;
10987;SDS011;5547;42.672;23.230;2023-12-28T18:39:53;57.15;;;37.88;;
10987;SDS011;5547;42.672;23.230;2023-12-28T18:43:52;54.78;;;35.53;;
10987;SDS011;5547;42.672;23.230;2023-12-28T18:47:51;50.10;;;32.50;;
10987;SDS011;5547;42.672;23.230;2023-12-28T18:51:50;48.08;;;31.58;;
10987;SDS011;5547;42.672;23.230;2023-12-28T18:55:49;54.53;;;34.08;;
10987;SDS011;5547;42.672;23.230;2023-12-28T18:59:48;49.70;;;30.83;;
10987;SDS011;5547;42.672;23.230;2023-12-28T19:03:47;45.25;;;30.73;;
10987;SDS011;5547;42.672;23.230;2023-12-28T19:07:46;48.03;;;29.52;;
10987;SDS011;5547;42.672;23.230;2023-12-28T19:11:45;49.67;;;31.80;;
10987;SDS011;5547;42.672;23.230;2023-12-28T19:15:44;47.97;;;32.22;;
10987;SDS011;5547;42.672;23.230;2023-12-28T19:19:43;44.72;;;27.95;;
10987;SDS011;5547;42.672;23.230;2023-12-28T19:23:42;45.00;;;29.93;;
10987;SDS011;5547;42.672;23.230;2023-12-28T19:27:41;45.23;;;29.27;;
10987;SDS011;5547;42.672;23.230;2023-12-28T19:31:40;41.50;;;27.73;;
10987;SDS011;5547;42.672;23.230;2023-12-28T19:35:39;44.08;;;32.28;;
10987;SDS011;5547;42.672;23.230;2023-12-28T19:39:38;46.13;;;32.20;;
10987;SDS011;5547;42.672;23.230;2023-12-28T19:43:37;43.60;;;30.83;;
10987;SDS011;5547;42.672;23.230;2023-12-28T19:47:36;41.67;;;27.20;;
10987;SDS011;5547;42.672;23.230;2023-12-28T19:51:35;46.80;;;31.83;;
10987;SDS011;5547;42.672;23.230;2023-12-28T19:55:34;47.35;;;29.42;;
10987;SDS011;5547;42.672;23.230;2023-12-28T19:59:33;54.00;;;31.77;;
10987;SDS011;5547;42.672;23.230;2023-12-28T20:03:32;54.83;;;35.03;;
10987;SDS011;5547;42.672;23.230;2023-12-28T20:07:31;70.50;;;49.60;;
10987;SDS011;5547;42.672;23.230;2023-12-28T20:11:30;66.18;;;45.72;;
10987;SDS011;5547;42.672;23.230;2023-12-28T20:15:29;65.30;;;47.13;;
10987;SDS011;5547;42.672;23.230;2023-12-28T20:19:28;59.38;;;41.17;;
10987;SDS011;5547;42.672;23.230;2023-12-28T20:23:27;52.65;;;35.70;;
10987;SDS011;5547;42.672;23.230;2023-12-28T20:27:29;47.40;;;32.17;;
10987;SDS011;5547;42.672;23.230;2023-12-28T20:31:27;46.03;;;32.20;;
10987;SDS011;5547;42.672;23.230;2023-12-28T20:35:27;41.67;;;29.48;;
10987;SDS011;5547;42.672;23.230;2023-12-28T20:39:25;42.38;;;27.95;;
10987;SDS011;5547;42.672;23.230;2023-12-28T20:43:24;39.80;;;26.70;;
10987;SDS011;5547;42.672;23.230;2023-12-28T20:47:23;38.70;;;24.75;;
10987;SDS011;5547;42.672;23.230;2023-12-28T20:51:22;45.47;;;27.27;;
10987;SDS011;5547;42.672;23.230;2023-12-28T20:55:21;40.17;;;25.05;;
10987;SDS011;5547;42.672;23.230;2023-12-28T20:59:20;39.93;;;25.23;;
10987;SDS011;5547;42.672;23.230;2023-12-28T21:03:19;38.88;;;25.40;;
10987;SDS011;5547;42.672;23.230;2023-12-28T21:07:18;38.35;;;24.60;;
10987;SDS011;5547;42.672;23.230;2023-12-28T21:11:17;37.40;;;23.08;;
10987;SDS011;5547;42.672;23.230;2023-12-28T21:15:22;53.03;;;31.77;;
10987;SDS011;5547;42.672;23.230;2023-12-28T21:19:23;48.93;;;30.40;;
10987;SDS011;5547;42.672;23.230;2023-12-28T21:23:22;46.90;;;29.05;;
10987;SDS011;5547;42.672;23.230;2023-12-28T21:27:21;42.42;;;27.88;;
10987;SDS011;5547;42.672;23.230;2023-12-28T21:31:20;44.15;;;27.60;;
10987;SDS011;5547;42.672;23.230;2023-12-28T21:35:19;48.10;;;31.88;;
10987;SDS011;5547;42.672;23.230;2023-12-28T21:39:18;39.77;;;27.10;;
10987;SDS011;5547;42.672;23.230;2023-12-28T21:43:17;41.83;;;27.13;;
10987;SDS011;5547;42.672;23.230;2023-12-28T21:47:16;42.58;;;26.98;;
10987;SDS011;5547;42.672;23.230;2023-12-28T21:51:15;38.53;;;26.25;;
10987;SDS011;5547;42.672;23.230;2023-12-28T21:55:14;42.35;;;25.45;;
10987;SDS011;5547;42.672;23.230;2023-12-28T21:59:13;44.20;;;27.90;;
10987;SDS011;5547;42.672;23.230;2023-12-28T22:03:12;44.80;;;29.50;;
10987;SDS011;5547;42.672;23.230;2023-12-28T22:07:11;45.42;;;28.60;;
10987;SDS011;5547;42.672;23.230;2023-12-28T22:11:12;47.55;;;29.90;;
10987;SDS011;5547;42.672;23.230;2023-12-28T22:15:11;45.40;;;27.88;;
10987;SDS011;5547;42.672;23.230;2023-12-28T22:19:10;47.90;;;28.45;;
10987;SDS011;5547;42.672;23.230;2023-12-28T22:23:09;40.50;;;25.98;;
10987;SDS011;5547;42.672;23.230;2023-12-28T22:27:08;43.70;;;27.83;;
10987;SDS011;5547;42.672;23.230;2023-12-28T22:31:08;39.00;;;25.65;;
10987;SDS011;5547;42.672;23.230;2023-12-28T22:35:08;41.58;;;26.25;;
10987;SDS011;5547;42.672;23.230;2023-12-28T22:39:07;41.17;;;25.67;;
10987;SDS011;5547;42.672;23.230;2023-12-28T22:43:07;41.35;;;25.10;;
10987;SDS011;5547;42.672;23.230;2023-12-28T22:47:08;40.83;;;26.00;;
10987;SDS011;5547;42.672;23.230;2023-12-28T22:51:07;45.33;;;27.15;;
10987;SDS011;5547;42.672;23.230;2023-12-28T22:55:06;41.20;;;26.23;;
10987;SDS011;5547;42.672;23.230;2023-12-28T22:59:06;43.05;;;26.70;;
10987;SDS011;5547;42.672;23.230;2023-12-28T23:03:06;42.42;;;27.50;;
10987;SDS011;5547;42.672;23.230;2023-12-28T23:07:05;44.40;;;26.23;;
10987;SDS011;5547;42.672;23.230;2023-12-28T23:11:04;42.65;;;28.10;;
10987;SDS011;5547;42.672;23.230;2023-12-28T23:15:03;33.80;;;23.63;;
10987;SDS011;5547;42.672;23.230;2023-12-28T23:19:02;36.33;;;22.70;;
10987;SDS011;5547;42.672;23.230;2023-12-28T23:23:02;38.08;;;23.50;;
10987;SDS011;5547;42.672;23.230;2023-12-28T23:27:01;34.87;;;21.33;;